createdAt,value
2022-11-04T00:00:37.572Z,81.76
2022-11-04T00:01:42.997Z,82.77
2022-11-04T00:02:46.084Z,86.43
2022-11-04T00:03:49.738Z,87.17
2022-11-04T00:04:52.820Z,83.51
2022-11-04T00:05:55.947Z,85.40
2022-11-04T00:06:59.022Z,82.89
2022-11-04T00:08:20.182Z,80.84
2022-11-04T00:09:25.923Z,86.58
2022-11-04T00:10:47.659Z,83.99
2022-11-04T00:12:09.697Z,81.81
2022-11-04T00:13:12.808Z,80.14
2022-11-04T00:14:15.965Z,79.82
2022-11-04T00:15:37.426Z,82.44
2022-11-04T00:16:59.238Z,83.76
2022-11-04T00:18:02.375Z,81.99
2022-11-04T00:19:05.363Z,86.44
2022-11-04T00:21:52.350Z,79.74
2022-11-04T00:23:13.767Z,80.94
2022-11-04T00:24:35.179Z,81.54
2022-11-04T00:25:56.791Z,83.34
2022-11-04T00:27:18.124Z,78.25
2022-11-04T00:28:39.809Z,81.58
2022-11-04T00:29:42.779Z,80.42
2022-11-04T00:30:45.649Z,79.63
2022-11-04T00:32:06.871Z,81.56
2022-11-04T00:33:25.271Z,79.56
2022-11-04T00:34:28.301Z,75.46
2022-11-04T00:35:31.244Z,79.20
2022-11-04T00:36:34.342Z,85.01
2022-11-04T00:37:38.740Z,84.47
2022-11-04T00:40:21.869Z,83.78
2022-11-04T00:41:29.246Z,80.31
2022-11-04T00:42:32.232Z,84.07
2022-11-04T00:43:35.213Z,71.58
2022-11-04T00:44:38.263Z,70.51
2022-11-04T00:45:42.126Z,64.92
2022-11-04T00:46:45.308Z,68.98
2022-11-04T00:47:48.177Z,65.75
2022-11-04T00:48:51.126Z,71.41
2022-11-04T00:49:54.279Z,60.76
2022-11-04T00:50:57.344Z,62.28
2022-11-04T00:52:00.374Z,61.44
2022-11-04T00:53:04.113Z,66.85
2022-11-04T00:54:07.198Z,59.78
2022-11-04T00:55:10.834Z,61.38
2022-11-04T00:56:13.838Z,58.83
2022-11-04T00:57:16.982Z,55.41
2022-11-04T00:58:19.947Z,53.59
2022-11-04T00:59:22.926Z,54.04
2022-11-04T01:00:26.209Z,55.58
2022-11-04T01:01:29.363Z,56.22
2022-11-04T01:02:32.549Z,55.52
2022-11-04T01:03:35.834Z,53.84
2022-11-04T01:04:38.898Z,44.21
2022-11-04T01:05:41.882Z,45.30
2022-11-04T01:06:44.971Z,43.16
2022-11-04T01:07:47.991Z,42.73
2022-11-04T01:09:00.075Z,41.53
2022-11-04T01:10:03.274Z,41.43
2022-11-04T01:11:08.306Z,46.91
2022-11-04T01:12:11.316Z,43.67
2022-11-04T01:13:14.287Z,43.68
2022-11-04T01:14:17.282Z,46.66
2022-11-04T01:15:20.551Z,45.03
2022-11-04T01:16:24.700Z,39.21
2022-11-04T01:17:28.250Z,41.32
2022-11-04T01:18:31.938Z,44.72
2022-11-04T01:19:34.951Z,44.36
2022-11-04T01:20:37.934Z,43.78
2022-11-04T01:21:40.893Z,41.84
2022-11-04T01:22:44.023Z,41.33
2022-11-04T01:23:46.965Z,40.29
2022-11-04T01:24:50.059Z,41.64
2022-11-04T01:25:53.063Z,42.09
2022-11-04T01:26:56.133Z,41.13
2022-11-04T01:27:59.108Z,38.63
2022-11-04T01:29:02.575Z,39.06
2022-11-04T01:30:06.478Z,39.92
2022-11-04T01:31:12.164Z,39.25
2022-11-04T01:32:15.377Z,40.41
2022-11-04T01:33:18.357Z,40.40
2022-11-04T01:34:21.358Z,37.83
2022-11-04T01:35:24.984Z,39.29
2022-11-04T01:36:28.145Z,40.52
2022-11-04T01:37:31.210Z,40.97
2022-11-04T01:38:34.583Z,37.91
2022-11-04T01:39:37.560Z,39.07
2022-11-04T01:40:41.080Z,38.49
2022-11-04T01:41:44.391Z,38.25
2022-11-04T01:42:47.678Z,36.34
2022-11-04T01:43:56.804Z,37.58
2022-11-04T01:45:00.821Z,36.39
2022-11-04T01:46:04.189Z,36.51
2022-11-04T01:47:16.232Z,34.62
2022-11-04T01:48:28.618Z,34.43
2022-11-04T01:49:37.909Z,36.54
2022-11-04T01:50:40.211Z,36.36
2022-11-04T01:51:45.308Z,36.01
2022-11-04T01:52:54.767Z,35.84
2022-11-04T01:53:58.290Z,37.03
2022-11-04T01:55:04.877Z,37.78
2022-11-04T01:56:12.242Z,36.68
2022-11-04T01:57:21.671Z,35.70
2022-11-04T01:58:28.217Z,37.34
2022-11-04T01:59:34.771Z,36.06
2022-11-04T02:00:38.945Z,38.34
2022-11-04T02:01:43.068Z,36.04
2022-11-04T02:02:58.992Z,36.15
2022-11-04T02:04:20.451Z,35.12
2022-11-04T02:05:23.514Z,33.88
2022-11-04T02:06:26.511Z,35.81
2022-11-04T02:07:30.696Z,35.59
2022-11-04T02:08:35.129Z,36.41
2022-11-04T02:09:39.694Z,34.34
2022-11-04T02:10:46.290Z,37.17
2022-11-04T02:12:07.424Z,34.87
2022-11-04T02:13:11.071Z,35.24
2022-11-04T02:14:14.448Z,32.68
2022-11-04T02:15:26.974Z,34.81
2022-11-04T02:16:39.480Z,36.00
2022-11-04T02:18:00.390Z,34.87
2022-11-04T02:19:26.420Z,33.81
2022-11-04T02:20:38.961Z,36.69
2022-11-04T02:22:09.850Z,37.39
2022-11-04T02:24:36.515Z,34.03
2022-11-04T02:26:05.825Z,38.13
2022-11-04T02:27:30.717Z,35.71
2022-11-04T02:28:46.046Z,36.70
2022-11-04T02:29:52.739Z,36.77
2022-11-04T02:31:08.460Z,37.16
2022-11-04T02:32:40.506Z,36.29
2022-11-04T02:33:56.233Z,37.27
2022-11-04T02:35:09.082Z,46.18
2022-11-04T02:36:21.899Z,46.04
2022-11-04T02:37:46.615Z,40.09
2022-11-04T02:38:59.298Z,39.33
2022-11-04T02:40:09.145Z,36.67
2022-11-04T02:41:18.676Z,37.34
2022-11-04T02:42:40.137Z,36.63
2022-11-04T02:44:06.535Z,36.07
2022-11-04T02:45:31.082Z,44.37
2022-11-04T02:46:37.703Z,45.78
2022-11-04T02:47:44.252Z,48.50
2022-11-04T02:48:53.489Z,47.91
2022-11-04T02:50:02.867Z,49.64
2022-11-04T02:51:18.144Z,53.03
2022-11-04T02:53:45.252Z,49.46
2022-11-04T02:54:51.790Z,47.75
2022-11-04T02:55:57.872Z,51.30
2022-11-04T02:57:03.481Z,51.75
2022-11-04T02:58:12.868Z,51.46
2022-11-04T02:59:31.519Z,49.96
2022-11-04T03:00:38.100Z,46.34
2022-11-04T03:01:45.956Z,47.84
2022-11-04T03:03:01.940Z,45.19
2022-11-04T03:04:11.799Z,44.48
2022-11-04T03:05:18.344Z,48.80
2022-11-04T03:06:24.366Z,44.34
2022-11-04T03:07:31.035Z,46.59
2022-11-04T03:08:37.337Z,43.55
2022-11-04T03:09:43.204Z,47.77
2022-11-04T03:10:49.843Z,47.02
2022-11-04T03:12:00.844Z,42.65
2022-11-04T03:13:36.052Z,44.17
2022-11-04T03:14:42.733Z,41.80
2022-11-04T03:15:52.169Z,42.79
2022-11-04T03:17:01.535Z,42.79
2022-11-04T03:18:17.168Z,41.33
2022-11-04T03:19:46.153Z,44.61
2022-11-04T03:20:51.079Z,42.92
2022-11-04T03:22:03.602Z,47.51
2022-11-04T03:23:08.558Z,47.11
2022-11-04T03:24:11.575Z,46.21
2022-11-04T03:25:15.155Z,46.71
2022-11-04T03:26:31.046Z,45.32
2022-11-04T03:27:49.840Z,46.72
2022-11-04T03:29:02.424Z,46.39
2022-11-04T03:30:21.063Z,46.29
2022-11-04T03:31:27.811Z,47.31
2022-11-04T03:32:52.260Z,47.34
2022-11-04T03:33:57.232Z,49.18
2022-11-04T03:35:00.624Z,54.01
2022-11-04T03:36:04.099Z,57.67
2022-11-04T03:37:07.543Z,62.95
2022-11-04T03:38:10.992Z,68.79
2022-11-04T03:39:14.162Z,69.91
2022-11-04T03:40:20.139Z,71.07
2022-11-04T03:41:35.480Z,76.96
2022-11-04T03:42:42.097Z,72.99
2022-11-04T03:43:45.711Z,71.99
2022-11-04T03:44:57.127Z,68.24
2022-11-04T03:46:00.337Z,72.57
2022-11-04T03:47:03.407Z,71.36
2022-11-04T03:48:06.831Z,70.15
2022-11-04T03:49:12.246Z,67.95
2022-11-04T03:50:20.760Z,70.42
2022-11-04T03:51:23.756Z,68.44
2022-11-04T03:52:27.111Z,70.13
2022-11-04T03:53:33.319Z,63.51
2022-11-04T03:54:36.331Z,65.90
2022-11-04T03:56:11.741Z,56.89
2022-11-04T03:57:33.293Z,64.50
2022-11-04T03:58:43.975Z,68.19
2022-11-04T04:00:08.405Z,66.35
2022-11-04T04:01:30.210Z,66.01
2022-11-04T04:02:42.763Z,59.28
2022-11-04T04:03:55.374Z,61.61
2022-11-04T04:05:04.746Z,64.77
2022-11-04T04:06:17.525Z,57.93
2022-11-04T04:07:24.063Z,74.50
2022-11-04T04:08:42.292Z,70.59
2022-11-04T04:09:48.879Z,67.87
2022-11-04T04:11:07.379Z,63.30
2022-11-04T04:12:19.639Z,71.11
2022-11-04T04:13:42.920Z,68.65
2022-11-04T04:14:53.343Z,68.55
2022-11-04T04:16:02.533Z,68.45
2022-11-04T04:17:20.919Z,64.26
2022-11-04T04:18:27.647Z,66.88
2022-11-04T04:19:32.533Z,67.26
2022-11-04T04:20:38.109Z,63.79
2022-11-04T04:21:50.675Z,66.46
2022-11-04T04:22:57.267Z,62.51
2022-11-04T04:24:22.597Z,68.50
2022-11-04T04:25:46.564Z,60.64
2022-11-04T04:27:10.499Z,61.22
2022-11-04T04:28:16.958Z,57.47
2022-11-04T04:29:21.545Z,63.02
2022-11-04T04:30:25.929Z,58.88
2022-11-04T04:31:50.192Z,60.87
2022-11-04T04:34:07.750Z,59.87
2022-11-04T04:35:29.246Z,60.08
2022-11-04T04:36:35.859Z,58.85
2022-11-04T04:37:40.980Z,53.73
2022-11-04T04:39:02.806Z,57.75
2022-11-04T04:40:26.546Z,58.14
2022-11-04T04:41:49.417Z,56.31
2022-11-04T04:43:11.422Z,55.86
2022-11-04T04:44:44.987Z,52.84
2022-11-04T04:45:53.568Z,52.54
2022-11-04T04:46:57.995Z,55.64
2022-11-04T04:48:01.481Z,52.08
2022-11-04T04:49:07.225Z,54.51
2022-11-04T04:50:17.074Z,50.93
2022-11-04T04:51:21.386Z,53.47
2022-11-04T04:52:26.767Z,55.14
2022-11-04T04:53:29.799Z,54.52
2022-11-04T04:54:32.913Z,56.74
2022-11-04T04:55:40.652Z,50.78
2022-11-04T04:56:41.092Z,49.50
2022-11-04T04:57:44.090Z,54.85
2022-11-04T04:58:47.105Z,55.08
2022-11-04T04:59:50.063Z,58.77
2022-11-04T05:00:53.080Z,57.64
2022-11-04T05:01:56.436Z,54.90
2022-11-04T05:02:59.449Z,49.54
2022-11-04T05:04:02.492Z,53.79
2022-11-04T05:05:06.257Z,54.20
2022-11-04T05:06:10.716Z,49.98
2022-11-04T05:07:13.952Z,53.81
2022-11-04T05:08:17.116Z,50.84
2022-11-04T05:09:21.008Z,51.23
2022-11-04T05:10:24.195Z,49.57
2022-11-04T05:11:27.522Z,47.64
2022-11-04T05:12:32.493Z,43.28
2022-11-04T05:13:35.602Z,46.48
2022-11-04T05:14:38.751Z,43.23
2022-11-04T05:15:41.884Z,46.05
2022-11-04T05:16:45.386Z,42.08
2022-11-04T05:17:50.221Z,43.76
2022-11-04T05:18:53.323Z,43.79
2022-11-04T05:19:56.388Z,43.38
2022-11-04T05:21:01.521Z,40.59
2022-11-04T05:22:04.627Z,40.26
2022-11-04T05:23:09.752Z,39.75
2022-11-04T05:24:12.898Z,39.63
2022-11-04T05:25:16.011Z,38.40
2022-11-04T05:26:19.557Z,38.10
2022-11-04T05:27:23.690Z,37.28
2022-11-04T05:28:26.602Z,39.43
2022-11-04T05:29:29.882Z,44.01
2022-11-04T05:30:33.454Z,38.91
2022-11-04T05:31:36.434Z,41.42
2022-11-04T05:32:39.453Z,42.84
2022-11-04T05:33:42.630Z,37.96
2022-11-04T05:34:47.005Z,37.58
2022-11-04T05:35:49.975Z,37.54
2022-11-04T05:36:53.388Z,38.22
2022-11-04T05:37:56.645Z,40.52
2022-11-04T05:38:59.560Z,37.96
2022-11-04T05:40:02.454Z,39.07
2022-11-04T05:41:07.399Z,36.88
2022-11-04T05:42:10.668Z,37.01
2022-11-04T05:43:13.767Z,31.88
2022-11-04T05:44:16.970Z,34.53
2022-11-04T05:45:20.559Z,33.23
2022-11-04T05:46:24.000Z,33.57
2022-11-04T05:47:27.080Z,33.86
2022-11-04T05:48:30.180Z,32.76
2022-11-04T05:49:33.166Z,33.75
2022-11-04T05:50:36.436Z,31.34
2022-11-04T05:51:39.399Z,29.81
2022-11-04T05:52:43.180Z,29.59
2022-11-04T05:53:47.045Z,27.21
2022-11-04T05:54:50.053Z,25.03
2022-11-04T05:55:53.094Z,23.72
2022-11-04T05:56:56.093Z,20.78
2022-11-04T05:57:59.161Z,18.46
2022-11-04T05:59:02.161Z,17.86
2022-11-04T06:00:06.459Z,15.64
2022-11-04T06:01:16.428Z,15.32
2022-11-04T06:02:19.658Z,15.41
2022-11-04T06:03:23.514Z,16.39
2022-11-04T06:04:26.740Z,15.15
2022-11-04T06:05:30.171Z,15.39
2022-11-04T06:06:35.706Z,15.78
2022-11-04T06:07:38.832Z,15.50
2022-11-04T06:08:45.132Z,15.53
2022-11-04T06:09:46.931Z,17.41
2022-11-04T06:10:50.172Z,16.54
2022-11-04T06:11:53.239Z,16.01
2022-11-04T06:12:57.247Z,14.81
2022-11-04T06:14:00.365Z,15.13
2022-11-04T06:15:04.381Z,15.54
2022-11-04T06:16:07.984Z,14.74
2022-11-04T06:17:18.685Z,15.95
2022-11-04T06:18:21.885Z,15.04
2022-11-04T06:19:24.994Z,14.54
2022-11-04T06:20:28.007Z,14.74
2022-11-04T06:21:32.849Z,15.84
2022-11-04T06:22:35.981Z,15.26
2022-11-04T06:23:39.568Z,15.39
2022-11-04T06:24:43.353Z,15.98
2022-11-04T06:25:46.399Z,16.11
2022-11-04T06:26:49.489Z,15.41
2022-11-04T06:27:52.438Z,16.05
2022-11-04T06:28:56.630Z,14.79
2022-11-04T06:29:59.715Z,14.52
2022-11-04T06:31:04.403Z,16.14
2022-11-04T06:32:13.048Z,16.19
2022-11-04T06:33:16.142Z,16.57
2022-11-04T06:34:19.192Z,17.24
2022-11-04T06:35:22.385Z,16.09
2022-11-04T06:36:25.418Z,16.12
2022-11-04T06:37:28.564Z,15.53
2022-11-04T06:38:32.892Z,16.52
2022-11-04T06:39:36.340Z,15.15
2022-11-04T06:40:39.533Z,14.79
2022-11-04T06:41:43.109Z,16.84
2022-11-04T06:42:46.556Z,15.18
2022-11-04T06:43:49.534Z,16.42
2022-11-04T06:44:52.766Z,16.48
2022-11-04T06:45:56.968Z,16.92
2022-11-04T06:47:00.240Z,17.11
2022-11-04T06:48:03.349Z,16.96
2022-11-04T06:49:09.313Z,18.09
2022-11-04T06:50:12.922Z,16.96
2022-11-04T06:51:16.249Z,16.89
2022-11-04T06:52:19.830Z,17.59
2022-11-04T06:53:22.789Z,16.96
2022-11-04T06:54:25.677Z,18.87
2022-11-04T06:55:28.817Z,17.02
2022-11-04T06:56:31.771Z,15.89
2022-11-04T06:57:34.804Z,16.89
2022-11-04T06:58:37.864Z,16.72
2022-11-04T06:59:40.840Z,22.16
2022-11-04T07:00:45.158Z,17.44
2022-11-04T07:01:51.533Z,17.78
2022-11-04T07:02:55.895Z,17.06
2022-11-04T07:04:00.220Z,16.66
2022-11-04T07:05:04.387Z,16.48
2022-11-04T07:06:09.057Z,17.14
2022-11-04T07:07:12.248Z,16.34
2022-11-04T07:08:15.745Z,17.54
2022-11-04T07:09:19.142Z,17.20
2022-11-04T07:10:22.141Z,17.23
2022-11-04T07:11:26.110Z,20.88
2022-11-04T07:12:29.466Z,25.56
2022-11-04T07:13:32.508Z,27.06
2022-11-04T07:14:35.485Z,26.36
2022-11-04T07:15:39.661Z,28.57
2022-11-04T07:16:42.790Z,29.90
2022-11-04T07:17:46.423Z,26.36
2022-11-04T07:18:51.314Z,26.49
2022-11-04T07:19:54.502Z,27.34
2022-11-04T07:20:58.436Z,27.92
2022-11-04T07:22:01.528Z,25.85
2022-11-04T07:23:05.028Z,25.65
2022-11-04T07:24:07.957Z,25.83
2022-11-04T07:25:11.029Z,26.62
2022-11-04T07:26:14.319Z,24.09
2022-11-04T07:27:17.217Z,24.36
2022-11-04T07:28:20.894Z,25.34
2022-11-04T07:29:25.142Z,24.51
2022-11-04T07:30:28.139Z,23.44
2022-11-04T07:31:31.131Z,24.24
2022-11-04T07:32:34.339Z,23.34
2022-11-04T07:33:37.218Z,23.91
2022-11-04T07:34:41.294Z,23.02
2022-11-04T07:35:45.184Z,24.88
2022-11-04T07:36:48.317Z,25.23
2022-11-04T07:37:51.499Z,25.48
2022-11-04T07:38:54.665Z,26.36
2022-11-04T07:39:57.698Z,26.25
2022-11-04T07:41:02.019Z,27.52
2022-11-04T07:42:07.968Z,26.61
2022-11-04T07:43:11.213Z,28.24
2022-11-04T07:44:14.482Z,28.61
2022-11-04T07:45:17.510Z,29.05
2022-11-04T07:46:21.498Z,27.23
2022-11-04T07:47:24.668Z,29.26
2022-11-04T07:48:27.649Z,27.58
2022-11-04T07:49:30.911Z,27.59
2022-11-04T07:50:34.404Z,27.64
2022-11-04T07:51:37.416Z,26.68
2022-11-04T07:52:40.557Z,27.97
2022-11-04T07:53:43.862Z,26.16
2022-11-04T07:54:46.885Z,28.07
2022-11-04T07:55:50.592Z,26.27
2022-11-04T07:56:53.605Z,25.68
2022-11-04T07:57:56.750Z,26.33
2022-11-04T07:58:59.776Z,27.04
2022-11-04T08:00:06.123Z,24.87
2022-11-04T08:01:16.891Z,26.91
2022-11-04T08:02:25.801Z,25.83
2022-11-04T08:03:25.013Z,26.22
2022-11-04T08:04:28.294Z,24.43
2022-11-04T08:05:31.359Z,24.00
2022-11-04T08:06:34.513Z,24.85
2022-11-04T08:07:37.594Z,23.38
2022-11-04T08:08:42.653Z,23.08
2022-11-04T08:09:45.744Z,22.55
2022-11-04T08:10:53.652Z,19.86
2022-11-04T08:11:56.693Z,20.59
2022-11-04T08:12:59.760Z,20.52
2022-11-04T08:14:04.066Z,18.94
2022-11-04T08:15:07.639Z,21.09
2022-11-04T08:16:14.233Z,19.59
2022-11-04T08:17:17.540Z,18.07
2022-11-04T08:18:20.684Z,18.89
2022-11-04T08:19:23.743Z,18.41
2022-11-04T08:20:27.248Z,17.47
2022-11-04T08:21:32.078Z,18.37
2022-11-04T08:22:35.233Z,17.88
2022-11-04T08:23:38.439Z,17.74
2022-11-04T08:24:41.528Z,17.57
2022-11-04T08:25:45.857Z,19.09
2022-11-04T08:26:49.074Z,19.55
2022-11-04T08:27:54.534Z,17.84
2022-11-04T08:28:57.029Z,19.06
2022-11-04T08:30:00.149Z,17.31
2022-11-04T08:31:06.736Z,17.23
2022-11-04T08:32:09.766Z,18.11
2022-11-04T08:33:12.986Z,18.37
2022-11-04T08:34:17.853Z,18.03
2022-11-04T08:35:20.856Z,19.46
2022-11-04T08:36:27.417Z,19.61
2022-11-04T08:37:30.457Z,19.17
2022-11-04T08:38:34.129Z,20.21
2022-11-04T08:39:37.116Z,18.65
2022-11-04T08:40:40.149Z,18.14
2022-11-04T08:41:44.919Z,16.80
2022-11-04T08:42:47.781Z,16.34
2022-11-04T08:43:50.937Z,17.09
2022-11-04T08:44:54.039Z,16.81
2022-11-04T08:45:57.235Z,16.89
2022-11-04T08:47:00.852Z,17.34
2022-11-04T08:48:05.670Z,18.00
2022-11-04T08:49:11.274Z,18.53
2022-11-04T08:50:13.892Z,17.42
2022-11-04T08:51:20.001Z,17.93
2022-11-04T08:52:24.238Z,17.24
2022-11-04T08:53:27.412Z,17.92
2022-11-04T08:54:30.378Z,17.67
2022-11-04T08:55:34.044Z,16.93
2022-11-04T08:56:39.141Z,15.38
2022-11-04T08:57:42.183Z,16.39
2022-11-04T08:58:45.474Z,15.95
2022-11-04T08:59:48.575Z,15.13
2022-11-04T09:00:51.987Z,14.99
2022-11-04T09:01:55.218Z,14.78
2022-11-04T09:02:58.387Z,13.92
2022-11-04T09:04:01.212Z,14.51
2022-11-04T09:05:04.900Z,14.04
2022-11-04T09:06:11.062Z,14.54
2022-11-04T09:07:14.194Z,14.10
2022-11-04T09:08:17.699Z,13.47
2022-11-04T09:09:21.655Z,13.36
2022-11-04T09:10:24.699Z,13.75
2022-11-04T09:11:27.751Z,14.69
2022-11-04T09:12:30.715Z,13.78
2022-11-04T09:13:39.263Z,13.86
2022-11-04T09:14:38.877Z,12.77
2022-11-04T09:15:42.743Z,13.07
2022-11-04T09:16:45.658Z,12.55
2022-11-04T09:17:48.601Z,13.30
2022-11-04T09:18:51.765Z,13.16
2022-11-04T09:19:55.055Z,14.63
2022-11-04T09:21:02.695Z,13.12
2022-11-04T09:22:05.693Z,13.36
2022-11-04T09:23:09.867Z,12.58
2022-11-04T09:24:13.473Z,12.41
2022-11-04T09:25:16.467Z,13.23
2022-11-04T09:26:21.089Z,12.86
2022-11-04T09:27:23.949Z,12.58
2022-11-04T09:28:26.959Z,13.32
2022-11-04T09:29:32.000Z,12.58
2022-11-04T09:30:36.011Z,13.92
2022-11-04T09:31:39.270Z,14.56
2022-11-04T09:32:42.226Z,14.59
2022-11-04T09:33:45.686Z,14.84
2022-11-04T09:34:48.627Z,13.43
2022-11-04T09:35:57.996Z,14.84
2022-11-04T09:37:01.273Z,13.26
2022-11-04T09:38:04.219Z,13.86
2022-11-04T09:39:07.190Z,13.52
2022-11-04T09:40:22.848Z,13.85
2022-11-04T09:41:52.465Z,13.49
2022-11-04T09:43:08.132Z,13.90
2022-11-04T09:44:24.225Z,13.42
2022-11-04T09:45:29.339Z,13.76
2022-11-04T09:46:34.639Z,13.18
2022-11-04T09:47:40.076Z,12.89
2022-11-04T09:48:49.256Z,13.39
2022-11-04T09:49:57.023Z,12.96
2022-11-04T09:51:03.644Z,13.94
2022-11-04T09:52:10.088Z,13.18
2022-11-04T09:53:19.451Z,13.04
2022-11-04T09:54:28.961Z,13.73
2022-11-04T09:55:41.639Z,12.53
2022-11-04T09:56:48.447Z,13.79
2022-11-04T09:57:55.114Z,13.60
2022-11-04T09:58:58.167Z,14.31
2022-11-04T10:00:01.359Z,12.43
2022-11-04T10:01:35.267Z,12.33
2022-11-04T10:02:53.641Z,13.24
2022-11-04T10:04:14.972Z,13.02
2022-11-04T10:05:39.399Z,13.01
2022-11-04T10:06:51.479Z,13.21
2022-11-04T10:08:26.558Z,14.64
2022-11-04T10:09:36.151Z,13.78
2022-11-04T10:10:48.843Z,14.04
2022-11-04T10:13:40.596Z,15.42
2022-11-04T10:15:07.944Z,14.60
2022-11-04T13:32:39.556Z,10.93
2022-11-04T13:34:07.208Z,10.44
2022-11-04T13:35:30.616Z,11.28
2022-11-04T13:36:43.064Z,10.54
2022-11-04T13:38:09.613Z,11.03
2022-11-04T13:40:48.694Z,11.85
2022-11-04T13:42:17.721Z,11.79
2022-11-04T13:43:39.293Z,13.83
2022-11-04T13:44:50.881Z,13.99
2022-11-04T13:45:56.264Z,12.11
2022-11-04T13:47:03.035Z,11.80
2022-11-04T13:48:09.928Z,13.11
2022-11-04T13:49:16.620Z,13.80
2022-11-04T13:50:38.211Z,14.65
2022-11-04T13:51:49.615Z,16.04
2022-11-04T13:52:53.118Z,14.66
2022-11-04T13:53:57.884Z,14.50
2022-11-04T13:55:08.090Z,13.41
2022-11-04T13:56:34.949Z,13.87
2022-11-04T13:57:35.005Z,17.86
2022-11-04T13:58:41.843Z,22.69
2022-11-04T14:00:04.079Z,18.34
2022-11-04T14:01:25.847Z,18.39
2022-11-04T14:02:38.861Z,14.36
2022-11-04T14:03:53.981Z,15.17
2022-11-04T14:04:57.343Z,15.09
2022-11-04T14:06:03.908Z,16.14
2022-11-04T14:07:10.085Z,14.97
2022-11-04T14:08:15.498Z,14.68
2022-11-04T14:09:30.911Z,14.93
2022-11-04T14:10:46.481Z,16.17
2022-11-04T14:12:19.050Z,15.96
2022-11-04T14:13:36.096Z,16.88
2022-11-04T14:14:44.517Z,16.01
2022-11-04T14:15:59.953Z,17.64
2022-11-04T14:17:04.873Z,16.13
2022-11-04T14:18:13.102Z,17.17
2022-11-04T14:19:38.194Z,17.34
2022-11-04T14:20:46.380Z,16.52
2022-11-04T14:22:09.534Z,17.36
2022-11-04T14:23:16.192Z,17.62
2022-11-04T14:24:19.476Z,16.89
2022-11-04T14:25:28.815Z,17.58
2022-11-04T14:26:43.901Z,16.62
2022-11-04T14:27:49.329Z,16.37
2022-11-04T14:29:01.791Z,17.87
2022-11-04T14:30:07.008Z,17.70
2022-11-04T14:31:17.437Z,18.02
2022-11-04T14:32:24.519Z,17.51
2022-11-04T14:33:54.622Z,16.64
2022-11-04T14:35:01.130Z,19.96
2022-11-04T14:36:22.683Z,19.46
2022-11-04T14:38:43.253Z,19.29
2022-11-04T14:39:49.673Z,17.00
2022-11-04T14:41:14.700Z,17.01
2022-11-04T14:42:21.108Z,17.67
2022-11-04T14:43:30.873Z,17.62
2022-11-04T14:44:45.639Z,17.91
2022-11-04T14:45:47.977Z,18.06
2022-11-04T14:46:54.104Z,19.65
2022-11-04T14:48:15.778Z,17.85
2022-11-04T14:50:31.453Z,17.46
2022-11-04T14:51:40.442Z,17.76
2022-11-04T14:52:49.859Z,19.26
2022-11-04T14:53:56.563Z,17.83
2022-11-04T14:55:11.985Z,19.31
2022-11-04T14:56:23.518Z,17.71
2022-11-04T14:57:24.338Z,18.42
2022-11-04T14:58:30.123Z,18.42
2022-11-04T14:59:33.087Z,17.88
2022-11-04T15:00:51.002Z,18.99
2022-11-04T15:01:55.545Z,18.44
2022-11-04T15:03:02.181Z,18.32
2022-11-04T15:04:17.844Z,18.57
2022-11-04T15:05:24.304Z,17.81
2022-11-04T15:06:40.673Z,18.65
2022-11-04T15:07:37.439Z,18.63
2022-11-04T15:08:46.383Z,20.76
2022-11-04T15:09:50.078Z,20.72
2022-11-04T15:11:00.130Z,26.17
2022-11-04T15:12:33.628Z,27.73
2022-11-04T15:13:46.007Z,27.96
2022-11-04T15:14:49.010Z,33.84
2022-11-04T15:15:55.315Z,35.34
2022-11-04T15:16:59.575Z,38.28
2022-11-04T15:18:11.561Z,36.81
2022-11-04T15:19:26.909Z,41.06
2022-11-04T15:20:31.048Z,42.45
2022-11-04T15:21:40.203Z,37.04
2022-11-04T15:22:43.710Z,34.11
2022-11-04T15:23:49.717Z,31.57
2022-11-04T15:24:52.976Z,30.89
2022-11-04T15:25:56.867Z,29.57
2022-11-04T15:27:03.202Z,29.27
2022-11-04T15:28:09.745Z,28.16
2022-11-04T15:29:14.435Z,26.27
2022-11-04T15:30:30.390Z,27.26
2022-11-04T15:31:34.954Z,27.00
2022-11-04T15:32:37.961Z,24.87
2022-11-04T15:33:44.193Z,21.99
2022-11-04T15:34:47.723Z,21.91
2022-11-04T15:35:51.738Z,20.56
2022-11-04T15:36:58.047Z,22.10
2022-11-04T15:38:03.345Z,21.55
2022-11-04T15:39:30.866Z,20.87
2022-11-04T15:40:34.746Z,21.06
2022-11-04T15:41:57.995Z,20.06
2022-11-04T15:43:03.484Z,18.81
2022-11-04T15:44:21.690Z,18.07
2022-11-04T15:45:51.367Z,18.93
2022-11-04T15:47:00.468Z,16.61
2022-11-04T15:48:23.295Z,16.17
2022-11-04T15:49:29.086Z,15.88
2022-11-04T15:50:32.183Z,15.41
2022-11-04T15:51:38.790Z,16.87
2022-11-04T15:52:50.928Z,16.44
2022-11-04T15:53:59.984Z,16.41
2022-11-04T15:55:04.843Z,16.93
2022-11-04T15:56:08.539Z,16.63
2022-11-04T15:57:20.684Z,15.48
2022-11-04T15:58:25.315Z,15.82
2022-11-04T15:59:34.577Z,15.16
2022-11-04T16:00:37.534Z,14.79
2022-11-04T16:01:48.848Z,15.32
2022-11-04T16:03:00.681Z,14.50
2022-11-04T16:04:05.833Z,15.52
2022-11-04T16:05:18.079Z,15.15
2022-11-04T16:07:46.931Z,15.37
2022-11-04T16:09:04.877Z,16.08
2022-11-04T16:10:24.359Z,14.96
2022-11-04T16:11:27.398Z,16.41
2022-11-04T16:12:35.922Z,16.61
2022-11-04T16:13:39.605Z,15.95
2022-11-04T16:14:50.546Z,15.54
2022-11-04T16:16:05.033Z,17.07
2022-11-04T16:17:10.594Z,16.61
2022-11-04T16:18:39.587Z,16.03
2022-11-04T16:19:45.525Z,17.46
2022-11-04T16:20:52.421Z,16.12
2022-11-04T16:22:04.576Z,15.43
2022-11-04T16:23:11.290Z,15.82
2022-11-04T16:24:18.004Z,17.89
2022-11-04T16:25:23.336Z,17.38
2022-11-04T16:26:34.399Z,16.22
2022-11-04T16:27:37.764Z,17.88
2022-11-04T16:28:41.794Z,16.94
2022-11-04T16:29:54.351Z,17.36
2022-11-04T16:31:09.951Z,16.88
2022-11-04T16:33:38.655Z,17.11
2022-11-04T16:34:42.271Z,16.53
2022-11-04T16:35:45.118Z,16.25
2022-11-04T16:36:48.008Z,15.88
2022-11-04T16:37:51.977Z,17.09
2022-11-04T16:38:56.820Z,17.92
2022-11-04T16:39:59.837Z,18.41
2022-11-04T16:41:02.719Z,17.49
2022-11-04T16:42:06.470Z,18.32
2022-11-04T16:43:10.263Z,18.84
2022-11-04T16:44:20.124Z,20.55
2022-11-04T16:45:34.671Z,20.21
2022-11-04T16:46:40.195Z,18.25
2022-11-04T16:47:43.173Z,20.79
2022-11-04T16:48:46.009Z,21.26
2022-11-04T16:49:48.861Z,19.76
2022-11-04T16:50:51.715Z,20.46
2022-11-04T16:51:57.872Z,20.83
2022-11-04T16:53:03.152Z,20.42
2022-11-04T16:54:06.013Z,20.58
2022-11-04T16:55:09.609Z,20.62
2022-11-04T16:56:12.789Z,21.41
2022-11-04T16:57:15.979Z,20.14
2022-11-04T16:58:18.994Z,20.68
2022-11-04T16:59:23.045Z,19.81
2022-11-04T17:00:26.882Z,19.79
2022-11-04T17:01:30.003Z,19.15
2022-11-04T17:02:40.348Z,19.51
2022-11-04T17:03:43.444Z,19.23
2022-11-04T17:04:46.367Z,20.24
2022-11-04T17:05:51.217Z,20.56
2022-11-04T17:06:54.505Z,21.17
2022-11-04T17:08:04.160Z,21.00
2022-11-04T17:09:02.713Z,19.68
2022-11-04T17:10:09.487Z,19.69
2022-11-04T17:11:12.539Z,18.75
2022-11-04T17:12:15.416Z,18.69
2022-11-04T17:13:18.246Z,20.21
2022-11-04T17:14:21.563Z,19.79
2022-11-04T17:15:25.385Z,19.39
2022-11-04T17:16:29.635Z,19.42
2022-11-04T17:17:32.507Z,18.04
2022-11-04T17:18:35.437Z,18.51
2022-11-04T17:19:39.221Z,18.85
2022-11-04T17:20:50.965Z,20.27
2022-11-04T17:21:56.189Z,19.91
2022-11-04T17:22:59.873Z,21.46
2022-11-04T17:24:04.178Z,21.31
2022-11-04T17:25:16.590Z,21.10
2022-11-04T17:26:19.934Z,21.01
2022-11-04T17:27:22.791Z,22.45
2022-11-04T17:28:27.378Z,22.39
2022-11-04T17:29:31.430Z,21.38
2022-11-04T17:30:34.770Z,20.58
2022-11-04T17:31:37.830Z,21.61
2022-11-04T17:32:41.993Z,20.59
2022-11-04T17:33:45.015Z,22.94
2022-11-04T17:34:47.982Z,21.28
2022-11-04T17:35:51.304Z,22.40
2022-11-04T17:36:54.782Z,21.26
2022-11-04T17:37:58.720Z,21.34
2022-11-04T17:39:01.734Z,21.53
2022-11-04T17:40:06.985Z,20.77
2022-11-04T17:41:28.179Z,21.18
2022-11-04T17:42:49.499Z,21.82
2022-11-04T17:44:01.643Z,19.49
2022-11-04T17:45:05.190Z,19.09
2022-11-04T17:46:27.829Z,19.02
2022-11-04T17:47:35.942Z,17.68
2022-11-04T17:48:38.822Z,20.24
2022-11-04T17:49:41.682Z,19.83
2022-11-04T17:50:45.940Z,20.63
2022-11-04T17:51:53.079Z,19.86
2022-11-04T17:52:56.154Z,19.53
2022-11-04T17:53:59.193Z,18.66
2022-11-04T17:55:02.634Z,17.97
2022-11-04T17:56:17.739Z,17.82
2022-11-04T17:57:20.665Z,17.16
2022-11-04T17:58:23.632Z,18.19
2022-11-04T17:59:31.225Z,17.54